Lake Dalecarlia, Indiana
Current Conditions -  °F | °C
As of 7:15 PM on Tuesday 21 Oct 2014 (Local Time) from KIGQ Reporting Station
Overcast Overcast  
Wind Chill: 46°   Ceiling: 2900
Heat Index: 49°   Visibility: 10mi
Dew Point: 39°   Wind: 8mph
Humidity: 69%   Direction: 30°NNE
Pressure: 30.22"   Gusts: 16mph
Location:  41.2585°N, 87.4193°W
Report Text: KIGQ 220015Z AUTO 03007G14KT 10SM OVC029 10/04 A3022 RMK AO2 T00950040
Loading
Personal Weather Stations






























Interactive Weather Map
Tropical Storm Tracking
New forecast layout! Learn more

10-Day Weather Forecast

Advertisements
Track Severe Weather on mobile